createdAt,value
2018-03-07T00:00:33.490Z,1.00
2018-03-07T00:03:01.505Z,1.00
2018-03-07T00:05:32.221Z,1.00
2018-03-07T00:08:01.205Z,1.00
2018-03-07T00:10:33.697Z,1.00
2018-03-07T00:13:02.489Z,99.90
2018-03-07T00:15:31.467Z,99.90
2018-03-07T00:17:59.498Z,99.90
2018-03-07T00:20:31.377Z,99.90
2018-03-07T00:22:59.424Z,99.90
2018-03-07T00:25:30.893Z,99.90
2018-03-07T00:27:58.937Z,99.90
2018-03-07T00:30:28.892Z,99.90
2018-03-07T00:32:56.935Z,99.90
2018-03-07T00:35:25.949Z,99.90
2018-03-07T00:37:54.681Z,99.90
2018-03-07T00:40:22.708Z,99.90
2018-03-07T00:42:51.705Z,99.90
2018-03-07T00:45:21.621Z,99.90
2018-03-07T00:47:51.621Z,99.90
2018-03-07T00:50:20.632Z,99.90
2018-03-07T00:52:49.421Z,99.90
2018-03-07T00:55:17.457Z,99.90
2018-03-07T00:57:45.493Z,99.90
2018-03-07T01:00:18.329Z,1.00
2018-03-07T01:02:46.377Z,99.90
2018-03-07T01:05:14.417Z,99.90
2018-03-07T01:07:45.797Z,99.90
2018-03-07T01:10:14.809Z,99.90
2018-03-07T01:12:42.837Z,99.90
2018-03-07T01:15:18.696Z,99.90
2018-03-07T01:17:49.457Z,99.90
2018-03-07T01:20:20.621Z,99.90
2018-03-07T01:22:48.652Z,99.90
2018-03-07T01:25:20.085Z,99.90
2018-03-07T01:27:52.749Z,99.90
2018-03-07T01:30:25.423Z,99.90
2018-03-07T01:32:54.392Z,99.90
2018-03-07T01:35:23.369Z,99.90
2018-03-07T01:37:59.245Z,99.90
2018-03-07T01:40:29.043Z,1.00
2018-03-07T01:42:57.064Z,1.00
2018-03-07T01:45:27.017Z,1.00
2018-03-07T01:47:58.993Z,1.00
2018-03-07T01:50:27.049Z,1.00
2018-03-07T01:52:55.109Z,1.00
2018-03-07T01:55:30.840Z,1.00
2018-03-07T01:57:58.873Z,1.00
2018-03-07T02:00:34.676Z,1.00
2018-03-07T02:03:02.816Z,1.00
2018-03-07T02:05:35.552Z,1.00
2018-03-07T02:08:09.327Z,1.00
2018-03-07T02:10:38.061Z,1.00
2018-03-07T02:13:06.861Z,1.00
2018-03-07T02:15:42.961Z,1.00
2018-03-07T02:18:16.592Z,1.00
2018-03-07T02:20:49.573Z,1.00
2018-03-07T02:23:18.565Z,1.00
2018-03-07T02:25:46.596Z,1.00
2018-03-07T02:28:16.545Z,1.00
2018-03-07T02:30:44.581Z,1.00
2018-03-07T02:33:14.540Z,1.00
2018-03-07T02:35:46.294Z,1.00
2018-03-07T02:38:24.093Z,1.00
2018-03-07T02:40:52.112Z,1.00
2018-03-07T02:43:20.160Z,1.00
2018-03-07T02:45:50.136Z,1.00
2018-03-07T02:48:18.172Z,1.00
2018-03-07T02:50:47.211Z,1.00
2018-03-07T02:53:17.229Z,1.00
2018-03-07T02:55:45.269Z,99.90
2018-03-07T02:58:13.313Z,99.90
2018-03-07T03:00:41.341Z,99.90
2018-03-07T03:03:10.285Z,99.90
2018-03-07T03:05:38.345Z,99.90
2018-03-07T03:08:09.748Z,99.90
2018-03-07T03:10:41.516Z,99.90
2018-03-07T03:13:12.281Z,99.90
2018-03-07T03:15:40.320Z,99.90
2018-03-07T03:18:09.120Z,99.90
2018-03-07T03:20:38.084Z,99.90
2018-03-07T03:23:07.081Z,99.90
2018-03-07T03:25:35.112Z,99.90
2018-03-07T03:28:03.144Z,99.90
2018-03-07T03:30:31.956Z,99.90
2018-03-07T03:33:05.742Z,99.90
2018-03-07T03:35:33.751Z,99.90
2018-03-07T03:38:08.312Z,99.90
2018-03-07T03:40:40.053Z,99.90
2018-03-07T03:43:09.081Z,99.90
2018-03-07T03:45:37.122Z,99.90
2018-03-07T03:48:05.168Z,99.90
2018-03-07T03:50:33.196Z,99.90
2018-03-07T03:53:05.642Z,99.90
2018-03-07T03:55:34.657Z,99.90
2018-03-07T03:58:02.661Z,99.90
2018-03-07T04:00:31.684Z,99.90
2018-03-07T04:02:59.704Z,99.90
2018-03-07T04:05:27.740Z,99.90
2018-03-07T04:07:58.676Z,99.90
2018-03-07T04:10:31.236Z,99.90
2018-03-07T04:12:59.280Z,99.90
2018-03-07T04:15:33.280Z,99.90
2018-03-07T04:18:03.260Z,99.90
2018-03-07T04:20:37.456Z,99.90
2018-03-07T04:23:06.460Z,99.90
2018-03-07T04:25:35.265Z,99.90
2018-03-07T04:28:16.785Z,99.90
2018-03-07T04:30:44.820Z,99.90
2018-03-07T04:33:12.854Z,99.90
2018-03-07T04:35:45.224Z,99.90
2018-03-07T04:38:25.865Z,99.90
2018-03-07T04:40:53.928Z,99.90
2018-03-07T04:43:25.532Z,99.90
2018-03-07T04:45:58.088Z,99.90
2018-03-07T04:48:27.085Z,99.90
2018-03-07T04:50:55.120Z,99.90
2018-03-07T04:53:23.148Z,99.90
2018-03-07T04:55:51.940Z,99.90
2018-03-07T04:58:20.896Z,99.90
2018-03-07T05:00:54.296Z,99.90
2018-03-07T05:03:22.348Z,99.90
2018-03-07T05:05:50.368Z,99.90
2018-03-07T05:08:20.356Z,99.90
2018-03-07T05:10:49.338Z,99.90
2018-03-07T05:13:21.752Z,99.90
2018-03-07T05:15:50.744Z,99.90
2018-03-07T05:18:18.772Z,99.90
2018-03-07T05:20:57.574Z,99.90
2018-03-07T05:23:28.640Z,99.90
2018-03-07T05:25:57.664Z,99.90
2018-03-07T05:28:26.452Z,99.90
2018-03-07T05:30:58.712Z,99.90
2018-03-07T05:33:27.508Z,99.90
2018-03-07T05:35:57.280Z,99.90
2018-03-07T05:38:26.280Z,99.90
2018-03-07T05:40:55.268Z,99.90
2018-03-07T05:43:23.288Z,99.90
2018-03-07T05:45:52.252Z,99.90
2018-03-07T05:48:25.748Z,99.90
2018-03-07T05:50:54.544Z,99.90
2018-03-07T05:53:25.368Z,99.90
2018-03-07T05:55:53.404Z,99.90
2018-03-07T05:58:22.426Z,99.90
2018-03-07T06:00:52.336Z,99.90
2018-03-07T06:03:20.360Z,99.90
2018-03-07T06:05:50.340Z,99.90
2018-03-07T06:08:19.316Z,99.90
2018-03-07T06:10:49.228Z,99.90
2018-03-07T06:13:18.216Z,99.90
2018-03-07T06:15:46.244Z,99.90
2018-03-07T06:18:14.272Z,99.90
2018-03-07T06:20:44.276Z,99.90
2018-03-07T06:23:15.752Z,99.90
2018-03-07T06:25:45.536Z,99.90
2018-03-07T06:28:14.532Z,99.90
2018-03-07T06:30:42.564Z,99.90
2018-03-07T06:33:10.596Z,99.90
2018-03-07T06:35:43.379Z,99.90
2018-03-07T06:38:13.172Z,99.90
2018-03-07T06:40:41.325Z,99.90
2018-03-07T06:43:09.333Z,99.90
2018-03-07T06:45:37.376Z,99.90
2018-03-07T06:48:12.591Z,99.90
2018-03-07T06:50:41.588Z,99.90
2018-03-07T06:53:09.628Z,99.90
2018-03-07T06:55:39.584Z,99.90
2018-03-07T06:58:07.617Z,99.90
2018-03-07T07:00:35.640Z,99.90
2018-03-07T07:03:05.448Z,99.90
2018-03-07T07:05:34.432Z,99.90
2018-03-07T07:08:05.292Z,99.90
2018-03-07T07:10:34.285Z,99.90
2018-03-07T07:13:03.972Z,99.90
2018-03-07T07:15:32.952Z,99.90
2018-03-07T07:18:05.420Z,99.90
2018-03-07T07:20:34.420Z,99.90
2018-03-07T07:23:02.449Z,99.90
2018-03-07T07:25:33.633Z,99.90
2018-03-07T07:28:01.660Z,99.90
2018-03-07T07:30:41.716Z,99.90
2018-03-07T07:33:09.724Z,99.90
2018-03-07T07:35:41.580Z,99.60
2018-03-07T07:38:09.608Z,98.90
2018-03-07T07:40:38.540Z,98.30
2018-03-07T07:43:06.596Z,97.80
2018-03-07T07:45:39.592Z,98.00
2018-03-07T07:48:15.268Z,98.60
2018-03-07T07:50:44.131Z,98.40
2018-03-07T07:53:12.120Z,98.40
2018-03-07T07:55:40.912Z,98.00
2018-03-07T07:58:12.852Z,97.80
2018-03-07T08:00:42.923Z,97.70
2018-03-07T08:03:11.788Z,97.80
2018-03-07T08:05:55.585Z,96.90
2018-03-07T08:11:19.092Z,96.60
2018-03-07T08:13:52.888Z,96.90
2018-03-07T08:16:20.920Z,96.80
2018-03-07T08:18:57.141Z,96.10
2018-03-07T08:21:32.134Z,96.70
2018-03-07T08:24:01.044Z,96.60
2018-03-07T08:26:41.468Z,96.50
2018-03-07T08:29:09.499Z,95.70
2018-03-07T08:31:40.200Z,94.80
2018-03-07T08:34:11.448Z,94.80
2018-03-07T08:36:40.440Z,95.60
2018-03-07T08:39:09.424Z,95.10
2018-03-07T08:41:37.456Z,95.10
2018-03-07T08:46:59.890Z,95.10
2018-03-07T08:49:34.443Z,94.80
2018-03-07T08:52:04.384Z,94.70
2018-03-07T08:54:56.274Z,94.60
2018-03-07T08:57:30.728Z,93.70
2018-03-07T08:59:58.764Z,92.80
2018-03-07T09:02:28.696Z,93.00
2018-03-07T09:04:57.713Z,93.00
2018-03-07T09:07:25.740Z,93.10
2018-03-07T09:09:53.765Z,92.00
2018-03-07T09:12:26.944Z,92.50
2018-03-07T09:14:58.824Z,91.90
2018-03-07T09:17:30.573Z,86.50
2018-03-07T09:19:58.604Z,85.50
2018-03-07T09:22:32.112Z,84.80
2018-03-07T09:25:02.024Z,81.10
2018-03-07T09:27:37.368Z,82.50
2018-03-07T09:30:07.309Z,83.90
2018-03-07T09:32:37.344Z,83.70
2018-03-07T09:35:06.141Z,78.40
2018-03-07T09:37:35.856Z,72.40
2018-03-07T09:40:03.876Z,72.20
2018-03-07T09:42:37.744Z,71.10
2018-03-07T09:45:19.076Z,73.00
2018-03-07T09:47:51.460Z,71.00
2018-03-07T09:50:33.932Z,73.00
2018-03-07T09:53:08.244Z,76.60
2018-03-07T09:55:43.076Z,80.20
2018-03-07T09:58:11.108Z,82.80
2018-03-07T10:00:39.900Z,88.50
2018-03-07T10:03:07.925Z,88.30
2018-03-07T10:05:56.229Z,86.30
2018-03-07T10:08:26.137Z,83.20
2018-03-07T10:10:57.949Z,81.60
2018-03-07T10:13:25.993Z,83.00
2018-03-07T10:15:54.012Z,84.10
2018-03-07T10:18:46.197Z,87.30
2018-03-07T10:21:33.909Z,87.30
2018-03-07T10:24:05.533Z,89.80
2018-03-07T10:26:39.512Z,90.50
2018-03-07T10:29:13.333Z,90.50
2018-03-07T10:31:41.356Z,91.20
2018-03-07T10:34:13.048Z,91.40
2018-03-07T10:36:51.636Z,91.90
2018-03-07T10:39:19.683Z,92.70
2018-03-07T10:41:56.164Z,92.90
2018-03-07T10:44:47.161Z,93.20
2018-03-07T10:53:18.696Z,95.30
2018-03-07T10:55:57.803Z,95.30
2018-03-07T10:58:32.520Z,95.50
2018-03-07T11:01:14.905Z,95.10
2018-03-07T11:03:57.704Z,94.90
2018-03-07T11:06:47.008Z,94.60
2018-03-07T11:09:16.036Z,94.60
2018-03-07T11:12:04.440Z,94.60
2018-03-07T11:14:42.866Z,94.30
2018-03-07T11:17:12.818Z,94.50
2018-03-07T11:19:50.680Z,94.50
2018-03-07T11:22:21.660Z,94.60
2018-03-07T11:24:50.640Z,94.60
2018-03-07T11:27:23.437Z,94.20
2018-03-07T11:29:57.340Z,94.00
2018-03-07T11:32:45.224Z,93.70
2018-03-07T11:38:13.892Z,92.80
2018-03-07T11:40:48.380Z,92.50
2018-03-07T11:43:25.472Z,91.80
2018-03-07T11:45:58.992Z,92.00
2018-03-07T11:48:56.180Z,91.70
2018-03-07T11:54:24.100Z,91.50
2018-03-07T11:56:55.556Z,91.00
2018-03-07T11:59:30.976Z,90.90
2018-03-07T12:02:04.492Z,91.00
2018-03-07T12:04:36.272Z,91.20
2018-03-07T12:07:13.727Z,91.30
2018-03-07T12:09:46.132Z,90.90
2018-03-07T12:12:14.147Z,90.80
2018-03-07T12:14:49.432Z,90.30
2018-03-07T12:17:18.432Z,90.80
2018-03-07T12:19:46.448Z,90.60
2018-03-07T12:22:20.412Z,90.40
2018-03-07T12:24:50.424Z,90.00
2018-03-07T12:27:18.452Z,90.20
2018-03-07T12:29:46.496Z,88.60
2018-03-07T12:32:15.284Z,86.50
2018-03-07T12:34:43.316Z,86.50
2018-03-07T12:37:12.336Z,87.60
2018-03-07T12:39:44.588Z,88.20
2018-03-07T12:42:13.564Z,89.40
2018-03-07T12:44:43.584Z,87.50
2018-03-07T12:47:12.580Z,88.40
2018-03-07T12:49:40.628Z,85.40
2018-03-07T12:52:09.644Z,84.00
2018-03-07T12:54:38.656Z,82.80
2018-03-07T12:57:06.682Z,80.30
2018-03-07T12:59:35.698Z,79.70
2018-03-07T13:02:03.714Z,80.60
2018-03-07T13:04:36.128Z,82.50
2018-03-07T13:07:04.179Z,82.90
2018-03-07T13:09:37.600Z,84.30
2018-03-07T13:12:07.636Z,83.50
2018-03-07T13:14:50.488Z,82.80
2018-03-07T13:17:18.520Z,80.70
2018-03-07T13:19:46.584Z,81.60
2018-03-07T13:22:17.936Z,80.90
2018-03-07T13:24:45.964Z,81.00
2018-03-07T13:27:18.376Z,81.50
2018-03-07T13:29:46.452Z,82.60
2018-03-07T13:32:18.427Z,81.50
2018-03-07T13:34:50.268Z,82.60
2018-03-07T13:37:18.304Z,84.00
2018-03-07T13:39:47.320Z,85.10
2018-03-07T13:42:22.360Z,85.10
2018-03-07T13:44:56.132Z,85.10
2018-03-07T13:47:25.174Z,82.90
2018-03-07T13:49:53.176Z,83.90
2018-03-07T13:52:21.207Z,84.50
2018-03-07T13:54:55.480Z,85.30
2018-03-07T13:57:24.512Z,85.60
2018-03-07T13:59:56.536Z,86.90
2018-03-07T14:02:30.348Z,88.60
2018-03-07T14:05:00.296Z,90.10
2018-03-07T14:07:34.920Z,90.50
2018-03-07T14:10:02.956Z,90.80
2018-03-07T14:12:38.311Z,90.90
2018-03-07T14:15:08.275Z,91.00
2018-03-07T14:17:39.164Z,89.70
2018-03-07T14:20:11.371Z,89.60
2018-03-07T14:22:40.171Z,85.30
2018-03-07T14:25:08.200Z,85.20
2018-03-07T14:27:48.126Z,86.80
2018-03-07T14:30:21.040Z,86.40
2018-03-07T14:32:56.240Z,86.60
2018-03-07T14:35:37.176Z,86.90
2018-03-07T14:38:05.976Z,86.30
2018-03-07T14:40:40.107Z,86.30
2018-03-07T14:43:10.556Z,86.10
2018-03-07T14:45:46.709Z,85.90
2018-03-07T14:48:15.722Z,79.60
2018-03-07T14:50:56.836Z,79.30
2018-03-07T14:53:42.912Z,75.90
2018-03-07T14:56:11.708Z,72.20
2018-03-07T14:58:41.487Z,69.30
2018-03-07T15:01:24.023Z,69.30
2018-03-07T15:03:56.256Z,68.60
2018-03-07T15:06:31.695Z,68.60
2018-03-07T15:09:13.135Z,68.00
2018-03-07T15:11:59.727Z,69.10
2018-03-07T15:14:28.510Z,68.30
2018-03-07T15:16:59.224Z,67.90
2018-03-07T15:19:37.592Z,67.40
2018-03-07T15:22:06.623Z,68.40
2018-03-07T15:24:54.423Z,67.20
2018-03-07T15:27:22.431Z,64.30
2018-03-07T15:29:56.759Z,64.80
2018-03-07T15:32:41.351Z,63.70
2018-03-07T15:35:09.367Z,60.90
2018-03-07T15:37:44.891Z,63.40
2018-03-07T15:40:12.915Z,64.70
2018-03-07T15:42:46.795Z,66.80
2018-03-07T15:45:15.775Z,66.70
2018-03-07T15:47:56.396Z,66.40
2018-03-07T15:50:41.135Z,66.10
2018-03-07T15:53:15.431Z,67.90
2018-03-07T15:55:55.850Z,67.90
2018-03-07T16:01:18.127Z,67.10
2018-03-07T16:03:47.033Z,66.60
2018-03-07T16:06:15.052Z,64.80
2018-03-07T16:08:44.969Z,65.10
2018-03-07T16:11:12.991Z,63.60
2018-03-07T16:13:40.999Z,63.60
2018-03-07T16:16:09.035Z,64.50
2018-03-07T16:18:43.507Z,64.40
2018-03-07T16:21:13.406Z,65.70
2018-03-07T16:23:47.612Z,66.20
2018-03-07T16:26:28.467Z,66.80
2018-03-07T16:28:57.247Z,67.20
2018-03-07T16:31:25.259Z,67.20
2018-03-07T16:33:53.291Z,68.70
2018-03-07T16:36:27.675Z,68.70
2018-03-07T16:38:55.691Z,68.10
2018-03-07T16:41:28.843Z,68.10
2018-03-07T16:43:56.883Z,70.30
2018-03-07T16:46:25.795Z,70.70
2018-03-07T16:48:53.824Z,72.10
2018-03-07T16:51:21.839Z,72.90
2018-03-07T16:53:49.847Z,73.70
2018-03-07T16:56:23.433Z,75.20
2018-03-07T16:58:51.434Z,75.20
2018-03-07T17:01:19.466Z,76.10
2018-03-07T17:03:47.487Z,76.90
2018-03-07T17:06:15.503Z,76.60
2018-03-07T17:08:44.492Z,76.70
2018-03-07T17:11:12.503Z,77.40
2018-03-07T17:13:40.528Z,77.60
2018-03-07T17:16:10.550Z,77.70
2018-03-07T17:18:39.491Z,76.70
2018-03-07T17:21:09.435Z,76.60
2018-03-07T17:23:43.683Z,77.20
2018-03-07T17:26:13.455Z,78.20
2018-03-07T17:28:41.510Z,77.50
2018-03-07T17:31:21.319Z,78.60
2018-03-07T17:33:54.440Z,78.30
2018-03-07T17:36:24.347Z,78.30
2018-03-07T17:38:53.263Z,78.80
2018-03-07T17:41:31.647Z,79.50
2018-03-07T17:44:01.829Z,80.20
2018-03-07T17:46:29.839Z,80.60
2018-03-07T17:48:59.779Z,81.60
2018-03-07T17:51:39.799Z,82.00
2018-03-07T17:54:12.063Z,81.70
2018-03-07T17:56:41.915Z,81.30
2018-03-07T17:59:10.899Z,81.10
2018-03-07T18:01:40.823Z,80.30
2018-03-07T18:04:19.715Z,80.10
2018-03-07T18:06:54.662Z,79.60
2018-03-07T18:09:22.675Z,79.40
2018-03-07T18:11:51.647Z,78.80
2018-03-07T18:14:26.743Z,78.10
2018-03-07T18:16:54.755Z,78.10
2018-03-07T18:19:22.774Z,76.60
2018-03-07T18:21:55.087Z,76.40
2018-03-07T18:24:29.698Z,76.40
2018-03-07T18:26:58.722Z,76.30
2018-03-07T18:29:32.628Z,76.30
2018-03-07T18:32:12.122Z,75.70
2018-03-07T18:34:40.126Z,76.20
2018-03-07T18:37:08.158Z,76.20
2018-03-07T18:39:39.012Z,76.30
2018-03-07T18:42:07.962Z,76.40
2018-03-07T18:44:37.996Z,76.90
2018-03-07T18:47:06.022Z,76.60
2018-03-07T18:49:35.937Z,76.60
2018-03-07T18:52:04.766Z,77.90
2018-03-07T18:54:41.306Z,77.40
2018-03-07T18:57:11.098Z,78.10
2018-03-07T18:59:39.166Z,78.00
2018-03-07T19:02:20.294Z,78.50
2018-03-07T19:04:48.446Z,77.80
2018-03-07T19:07:17.666Z,78.10
2018-03-07T19:09:46.553Z,77.90
2018-03-07T19:12:14.575Z,78.50
2018-03-07T19:14:51.221Z,78.80
2018-03-07T19:17:21.214Z,78.80
2018-03-07T19:19:51.202Z,79.90
2018-03-07T19:22:20.011Z,80.90
2018-03-07T19:24:48.954Z,81.50
2018-03-07T19:27:17.982Z,80.50
2018-03-07T19:29:46.017Z,80.20
2018-03-07T19:32:14.898Z,81.30
2018-03-07T19:34:46.058Z,82.80
2018-03-07T19:37:15.094Z,83.60
2018-03-07T19:39:43.113Z,85.10
2018-03-07T19:42:12.023Z,84.70
2018-03-07T19:44:43.166Z,84.70
2018-03-07T19:47:12.118Z,84.80
2018-03-07T19:49:40.158Z,85.00
2018-03-07T19:52:08.174Z,85.00
2018-03-07T19:54:38.100Z,85.70
2018-03-07T19:57:16.724Z,86.30
2018-03-07T19:59:46.615Z,86.60
2018-03-07T20:02:14.642Z,87.30
2018-03-07T20:04:43.609Z,87.90
2018-03-07T20:07:23.302Z,89.20
2018-03-07T20:09:54.570Z,89.20
2018-03-07T20:12:28.210Z,90.20
2018-03-07T20:14:57.993Z,90.70
2018-03-07T20:17:27.302Z,90.70
2018-03-07T20:19:55.346Z,91.20
2018-03-07T20:22:24.350Z,92.00
2018-03-07T20:24:54.374Z,92.10
2018-03-07T20:27:23.345Z,92.50
2018-03-07T20:29:51.378Z,93.20
2018-03-07T20:32:20.334Z,93.10
2018-03-07T20:34:51.590Z,93.60
2018-03-07T20:37:27.101Z,94.00
2018-03-07T20:39:55.142Z,94.00
2018-03-07T20:42:24.162Z,94.30
2018-03-07T20:44:52.206Z,94.60
2018-03-07T20:47:26.042Z,95.00
2018-03-07T20:49:54.180Z,95.40
2018-03-07T20:52:24.101Z,95.20
2018-03-07T20:54:52.966Z,95.10
2018-03-07T20:57:25.361Z,95.00
2018-03-07T20:59:55.422Z,94.90
2018-03-07T21:02:26.607Z,95.20
2018-03-07T21:04:54.733Z,95.10
2018-03-07T21:07:23.002Z,95.00
2018-03-07T21:09:53.493Z,94.90
2018-03-07T21:12:23.257Z,95.10
2018-03-07T21:14:52.270Z,95.10
2018-03-07T21:17:29.670Z,95.10
2018-03-07T21:19:57.949Z,95.10
2018-03-07T21:22:26.952Z,95.30
2018-03-07T21:24:57.197Z,95.30
2018-03-07T21:27:25.273Z,95.30
2018-03-07T21:29:53.753Z,95.20
2018-03-07T21:32:23.933Z,95.20
2018-03-07T21:34:52.009Z,95.30
2018-03-07T21:37:20.054Z,95.30
2018-03-07T21:39:48.865Z,95.60
2018-03-07T21:42:18.759Z,95.60
2018-03-07T21:44:47.573Z,95.90
2018-03-07T21:47:15.653Z,95.80
2018-03-07T21:49:43.693Z,95.90
2018-03-07T21:52:13.761Z,95.90
2018-03-07T21:54:42.809Z,96.10
2018-03-07T21:57:11.785Z,96.10
2018-03-07T21:59:39.805Z,95.90
2018-03-07T22:02:08.846Z,95.90
2018-03-07T22:04:43.262Z,96.10
2018-03-07T22:07:11.497Z,96.00
2018-03-07T22:09:39.565Z,96.20
2018-03-07T22:12:08.409Z,96.30
2018-03-07T22:14:41.314Z,96.40
2018-03-07T22:17:09.530Z,96.30
2018-03-07T22:19:37.573Z,96.40
2018-03-07T22:22:09.425Z,96.40
2018-03-07T22:24:38.418Z,96.50
2018-03-07T22:27:07.285Z,96.60
2018-03-07T22:29:35.664Z,96.70
2018-03-07T22:32:06.092Z,96.80
2018-03-07T22:34:34.877Z,97.00
2018-03-07T22:37:05.305Z,97.10
2018-03-07T22:39:33.625Z,96.80
2018-03-07T22:42:03.625Z,96.40
2018-03-07T22:44:33.280Z,95.80
2018-03-07T22:47:01.537Z,95.40
2018-03-07T22:49:30.532Z,95.30
2018-03-07T22:51:58.641Z,95.10
2018-03-07T22:54:27.388Z,95.00
2018-03-07T22:57:00.107Z,94.50
2018-03-07T22:59:29.077Z,94.50
2018-03-07T23:01:57.125Z,94.20
2018-03-07T23:04:25.206Z,94.20
2018-03-07T23:06:54.933Z,94.40
2018-03-07T23:09:22.976Z,94.30
2018-03-07T23:11:51.978Z,94.20
2018-03-07T23:14:20.040Z,94.20
2018-03-07T23:16:48.057Z,94.10
2018-03-07T23:19:16.084Z,94.00
2018-03-07T23:21:44.116Z,93.80
2018-03-07T23:24:12.373Z,93.70
2018-03-07T23:26:50.844Z,93.70
2018-03-07T23:29:23.043Z,93.70
2018-03-07T23:31:53.057Z,93.80
2018-03-07T23:34:25.615Z,93.90
2018-03-07T23:36:54.337Z,93.90
2018-03-07T23:39:25.981Z,94.10
2018-03-07T23:41:54.601Z,94.40
2018-03-07T23:44:23.625Z,94.50
2018-03-07T23:46:52.656Z,94.30
2018-03-07T23:49:26.347Z,94.20
2018-03-07T23:51:56.221Z,93.90
2018-03-07T23:54:26.241Z,93.90
2018-03-07T23:56:54.285Z,93.80
2018-03-07T23:59:22.552Z,93.80
